createdAt,value
2019-03-21T00:02:20.818Z,48.50
2019-03-21T00:04:52.635Z,48.68
2019-03-21T00:07:24.233Z,48.69
2019-03-21T00:10:32.524Z,48.64
2019-03-21T00:13:04.116Z,48.73
2019-03-21T00:15:52.475Z,48.73
2019-03-21T00:18:24.137Z,48.81
2019-03-21T00:20:55.748Z,48.65
2019-03-21T00:23:27.341Z,48.96
2019-03-21T00:25:58.908Z,48.73
2019-03-21T00:28:30.493Z,48.88
2019-03-21T00:31:02.085Z,49.05
2019-03-21T00:33:35.150Z,48.95
2019-03-21T00:36:06.813Z,49.12
2019-03-21T00:38:38.384Z,49.18
2019-03-21T00:41:09.983Z,48.97
2019-03-21T00:43:41.573Z,49.11
2019-03-21T00:46:13.157Z,49.38
2019-03-21T00:48:44.747Z,49.35
2019-03-21T00:51:16.246Z,49.41
2019-03-21T00:53:47.827Z,49.50
2019-03-21T00:56:19.367Z,49.72
2019-03-21T00:58:50.877Z,49.69
2019-03-21T01:01:22.411Z,49.81
2019-03-21T01:03:54.000Z,50.08
2019-03-21T01:06:26.574Z,50.13
2019-03-21T01:08:58.077Z,50.43
2019-03-21T01:11:29.592Z,50.89
2019-03-21T01:14:01.273Z,50.70
2019-03-21T01:16:32.791Z,50.96
2019-03-21T01:19:04.462Z,51.20
2019-03-21T01:21:36.142Z,51.29
2019-03-21T01:24:07.711Z,51.27
2019-03-21T01:26:39.199Z,51.51
2019-03-21T01:29:10.696Z,51.57
2019-03-21T01:31:42.350Z,51.70
2019-03-21T01:34:13.902Z,51.87
2019-03-21T01:36:45.424Z,51.85
2019-03-21T01:39:16.917Z,51.82
2019-03-21T01:41:48.413Z,51.90
2019-03-21T01:44:19.975Z,51.92
2019-03-21T01:46:51.483Z,52.13
2019-03-21T01:49:24.069Z,52.30
2019-03-21T01:51:56.659Z,52.26
2019-03-21T01:54:28.185Z,52.16
2019-03-21T01:56:59.751Z,52.15
2019-03-21T01:59:31.264Z,52.32
2019-03-21T02:02:02.849Z,52.63
2019-03-21T02:04:34.431Z,52.72
2019-03-21T02:07:06.033Z,52.62
2019-03-21T02:09:37.522Z,52.82
2019-03-21T02:12:09.038Z,52.87
2019-03-21T02:14:51.612Z,52.86
2019-03-21T02:17:13.842Z,53.08
2019-03-21T02:19:45.366Z,53.02
2019-03-21T02:22:16.947Z,53.20
2019-03-21T02:24:48.628Z,53.39
2019-03-21T02:27:20.196Z,53.53
2019-03-21T02:29:51.774Z,53.47
2019-03-21T02:32:23.290Z,53.46
2019-03-21T02:34:54.881Z,53.61
2019-03-21T02:37:26.404Z,53.67
2019-03-21T02:39:59.932Z,53.55
2019-03-21T02:42:31.251Z,53.49
2019-03-21T02:45:09.035Z,53.51
2019-03-21T02:47:37.069Z,53.64
2019-03-21T02:50:20.997Z,53.89
2019-03-21T02:52:52.498Z,53.85
2019-03-21T02:55:25.293Z,53.86
2019-03-21T02:57:56.865Z,54.29
2019-03-21T03:00:35.335Z,54.66
2019-03-21T03:03:09.131Z,54.65
2019-03-21T03:05:40.632Z,54.81
2019-03-21T03:08:12.197Z,54.96
2019-03-21T03:10:53.906Z,55.13
2019-03-21T03:13:25.900Z,55.21
2019-03-21T03:15:57.503Z,55.40
2019-03-21T03:18:28.978Z,55.54
2019-03-21T03:21:00.491Z,55.65
2019-03-21T03:23:32.058Z,55.64
2019-03-21T03:26:03.663Z,55.60
2019-03-21T03:28:42.709Z,55.75
2019-03-21T03:31:14.218Z,55.88
2019-03-21T03:33:46.070Z,56.18
2019-03-21T03:36:17.806Z,56.11
2019-03-21T03:38:49.316Z,56.41
2019-03-21T03:41:22.378Z,56.42
2019-03-21T03:43:53.917Z,56.44
2019-03-21T03:46:25.441Z,56.60
2019-03-21T03:48:56.960Z,56.62
2019-03-21T03:51:28.504Z,56.63
2019-03-21T03:54:00.090Z,56.42
2019-03-21T03:56:31.603Z,56.77
2019-03-21T03:59:09.423Z,57.06
2019-03-21T04:01:39.977Z,57.37
2019-03-21T04:04:11.474Z,57.46
2019-03-21T04:06:42.992Z,57.59
2019-03-21T04:09:14.517Z,57.88
2019-03-21T04:11:46.022Z,57.79
2019-03-21T04:14:17.545Z,58.32
2019-03-21T04:16:49.083Z,58.33
2019-03-21T04:19:20.652Z,58.43
2019-03-21T04:21:52.175Z,58.56
2019-03-21T04:24:23.756Z,58.83
2019-03-21T04:26:55.273Z,58.74
2019-03-21T04:29:26.846Z,58.78
2019-03-21T04:31:58.434Z,58.73
2019-03-21T04:34:29.940Z,58.98
2019-03-21T04:37:01.577Z,58.76
2019-03-21T04:39:33.108Z,58.73
2019-03-21T04:42:04.746Z,58.77
2019-03-21T04:44:36.335Z,58.60
2019-03-21T04:47:07.857Z,58.59
2019-03-21T04:49:39.445Z,58.64
2019-03-21T04:52:10.967Z,58.49
2019-03-21T04:54:42.494Z,58.62
2019-03-21T04:57:14.056Z,58.68
2019-03-21T04:59:45.636Z,58.97
2019-03-21T05:02:17.305Z,58.93
2019-03-21T05:04:48.910Z,58.73
2019-03-21T05:07:20.405Z,58.90
2019-03-21T05:09:51.990Z,59.16
2019-03-21T05:12:23.500Z,59.48
2019-03-21T05:14:55.010Z,59.89
2019-03-21T05:17:26.533Z,59.76
2019-03-21T05:19:58.025Z,59.72
2019-03-21T05:22:32.246Z,59.63
2019-03-21T05:25:04.757Z,59.82
2019-03-21T05:27:36.292Z,60.42
2019-03-21T05:30:30.689Z,60.53
2019-03-21T05:33:02.177Z,60.22
2019-03-21T05:35:33.702Z,60.25
2019-03-21T05:38:06.466Z,60.27
2019-03-21T05:40:38.139Z,60.17
2019-03-21T05:43:29.071Z,60.12
2019-03-21T05:46:02.196Z,60.17
2019-03-21T05:48:33.712Z,60.30
2019-03-21T05:51:05.340Z,60.29
2019-03-21T05:53:36.856Z,60.28
2019-03-21T05:56:09.007Z,60.19
2019-03-21T05:58:40.641Z,59.91
2019-03-21T06:01:13.497Z,59.96
2019-03-21T06:03:52.853Z,59.76
2019-03-21T06:06:38.618Z,59.76
2019-03-21T06:09:15.408Z,59.52
2019-03-21T06:11:54.615Z,59.45
2019-03-21T06:14:26.492Z,59.44
2019-03-21T06:16:58.278Z,59.35
2019-03-21T06:19:34.685Z,59.51
2019-03-21T06:22:25.867Z,59.35
2019-03-21T06:25:21.779Z,59.22
2019-03-21T06:27:53.322Z,59.53
2019-03-21T06:30:24.848Z,59.44
2019-03-21T06:32:56.529Z,59.50
2019-03-21T06:35:28.072Z,59.37
2019-03-21T06:37:59.650Z,59.26
2019-03-21T06:40:32.755Z,59.10
2019-03-21T06:43:04.328Z,58.79
2019-03-21T06:45:47.346Z,58.43
2019-03-21T06:48:09.156Z,57.96
2019-03-21T06:50:40.700Z,56.93
2019-03-21T06:53:12.210Z,56.47
2019-03-21T06:55:43.734Z,55.70
2019-03-21T06:58:15.254Z,55.01
2019-03-21T07:00:46.774Z,54.24
2019-03-21T07:03:18.644Z,53.49
2019-03-21T07:05:50.393Z,53.43
2019-03-21T07:08:22.038Z,53.38
2019-03-21T07:10:53.563Z,53.45
2019-03-21T07:13:25.105Z,53.69
2019-03-21T07:15:56.661Z,54.39
2019-03-21T07:18:28.162Z,55.37
2019-03-21T07:21:01.161Z,55.90
2019-03-21T07:23:32.880Z,56.92
2019-03-21T07:26:06.823Z,57.98
2019-03-21T07:28:39.547Z,58.27
2019-03-21T07:31:11.467Z,58.68
2019-03-21T07:33:43.058Z,58.73
2019-03-21T07:36:14.657Z,59.28
2019-03-21T07:38:46.231Z,60.11
2019-03-21T07:41:17.761Z,60.15
2019-03-21T07:43:49.282Z,60.38
2019-03-21T07:46:20.936Z,60.58
2019-03-21T07:48:52.453Z,60.45
2019-03-21T07:51:24.001Z,59.37
2019-03-21T07:53:55.518Z,58.45
2019-03-21T07:56:27.042Z,57.57
2019-03-21T07:58:58.550Z,57.81
2019-03-21T08:01:30.069Z,57.90
2019-03-21T08:04:02.989Z,58.53
2019-03-21T08:06:34.856Z,58.09
2019-03-21T08:09:08.086Z,57.73
2019-03-21T08:11:41.088Z,57.62
2019-03-21T08:14:12.652Z,58.12
2019-03-21T08:16:44.174Z,58.02
2019-03-21T08:19:15.775Z,58.13
2019-03-21T08:21:47.278Z,58.62
2019-03-21T08:24:18.784Z,58.99
2019-03-21T08:26:50.310Z,59.84
2019-03-21T08:29:21.830Z,59.99
2019-03-21T08:31:53.348Z,59.94
2019-03-21T08:34:24.871Z,59.15
2019-03-21T08:36:56.378Z,58.30
2019-03-21T08:39:27.901Z,58.08
2019-03-21T08:41:59.494Z,58.19
2019-03-21T08:44:31.018Z,57.15
2019-03-21T08:47:02.543Z,56.78
2019-03-21T08:49:34.141Z,56.21
2019-03-21T08:52:06.732Z,55.82
2019-03-21T08:54:39.334Z,54.88
2019-03-21T08:57:10.845Z,54.25
2019-03-21T08:59:42.367Z,54.22
2019-03-21T09:02:13.890Z,53.92
2019-03-21T09:04:45.556Z,53.38
2019-03-21T09:07:17.162Z,53.45
2019-03-21T09:09:48.748Z,53.14
2019-03-21T09:12:20.257Z,53.63
2019-03-21T09:14:51.851Z,52.95
2019-03-21T09:17:23.455Z,52.37
2019-03-21T09:19:54.968Z,51.85
2019-03-21T09:22:27.486Z,53.01
2019-03-21T09:24:59.082Z,53.26
2019-03-21T09:27:32.415Z,53.38
2019-03-21T09:30:06.709Z,53.53
2019-03-21T09:32:38.310Z,53.43
2019-03-21T09:35:12.373Z,53.09
2019-03-21T09:37:43.038Z,53.36
2019-03-21T09:40:14.555Z,52.74
2019-03-21T09:42:46.060Z,52.44
2019-03-21T09:45:17.659Z,52.22
2019-03-21T09:47:52.499Z,51.33
2019-03-21T09:50:29.613Z,50.16
2019-03-21T09:53:01.145Z,49.59
2019-03-21T09:55:32.711Z,48.95
2019-03-21T09:58:04.219Z,49.09
2019-03-21T10:00:38.635Z,48.88
2019-03-21T10:03:10.627Z,48.78
2019-03-21T10:05:42.296Z,48.87
2019-03-21T10:08:13.830Z,49.04
2019-03-21T10:10:45.426Z,50.01
2019-03-21T10:13:16.951Z,50.30
2019-03-21T10:15:48.464Z,50.32
2019-03-21T10:18:19.983Z,50.20
2019-03-21T10:20:51.594Z,51.21
2019-03-21T10:23:23.120Z,51.84
2019-03-21T10:25:55.706Z,52.01
2019-03-21T10:28:27.203Z,51.20
2019-03-21T10:30:58.841Z,50.21
2019-03-21T10:33:30.434Z,49.25
2019-03-21T10:36:01.961Z,49.15
2019-03-21T10:38:33.544Z,48.90
2019-03-21T10:41:05.055Z,48.65
2019-03-21T10:43:36.580Z,48.48
2019-03-21T10:46:08.105Z,48.43
2019-03-21T10:48:39.706Z,48.29
2019-03-21T10:51:11.446Z,48.17
2019-03-21T10:53:42.967Z,47.72
2019-03-21T10:56:17.734Z,47.62
2019-03-21T10:58:54.815Z,46.60
2019-03-21T11:01:26.309Z,46.48
2019-03-21T11:03:57.815Z,47.39
2019-03-21T11:06:29.485Z,47.35
2019-03-21T11:09:07.007Z,47.93
2019-03-21T11:11:38.536Z,47.85
2019-03-21T11:14:12.535Z,48.03
2019-03-21T11:16:47.028Z,47.85
2019-03-21T11:19:18.536Z,47.86
2019-03-21T11:21:50.784Z,47.69
2019-03-21T11:24:22.858Z,48.03
2019-03-21T11:26:56.098Z,46.93
2019-03-21T11:29:27.567Z,46.55
2019-03-21T11:31:59.065Z,46.23
2019-03-21T11:34:30.564Z,46.60
2019-03-21T11:37:02.333Z,46.91
2019-03-21T11:39:34.083Z,47.83
2019-03-21T11:42:06.813Z,47.46
2019-03-21T11:44:38.338Z,47.42
2019-03-21T11:47:09.921Z,47.51
2019-03-21T11:49:41.546Z,48.00
2019-03-21T11:52:18.229Z,47.88
2019-03-21T11:54:46.430Z,47.90
2019-03-21T11:57:18.012Z,48.33
2019-03-21T11:59:51.984Z,47.81
2019-03-21T12:02:27.476Z,47.42
2019-03-21T12:04:56.165Z,47.62
2019-03-21T12:07:27.757Z,47.59
2019-03-21T12:09:59.360Z,47.48
2019-03-21T12:12:31.132Z,47.43
2019-03-21T12:15:02.734Z,47.41
2019-03-21T12:17:34.434Z,47.65
2019-03-21T12:20:29.953Z,47.77
2019-03-21T12:23:02.097Z,47.66
2019-03-21T12:25:33.667Z,47.57
2019-03-21T12:28:05.172Z,47.35
2019-03-21T12:30:38.887Z,48.17
2019-03-21T12:33:10.438Z,48.24
2019-03-21T12:35:43.539Z,48.10
2019-03-21T12:38:15.063Z,48.36
2019-03-21T12:40:46.571Z,49.28
2019-03-21T12:43:18.664Z,50.16
2019-03-21T12:45:50.255Z,50.20
2019-03-21T12:48:22.343Z,49.93
2019-03-21T12:50:53.884Z,50.27
2019-03-21T12:53:25.477Z,49.97
2019-03-21T12:55:57.034Z,49.24
2019-03-21T12:58:28.565Z,48.88
2019-03-21T13:01:00.194Z,48.82
2019-03-21T13:03:34.205Z,48.63
2019-03-21T13:06:07.438Z,48.88
2019-03-21T13:08:38.943Z,48.84
2019-03-21T13:11:10.504Z,48.78
2019-03-21T13:13:43.615Z,49.22
2019-03-21T13:16:15.116Z,49.63
2019-03-21T13:18:46.686Z,50.07
2019-03-21T13:21:18.379Z,49.74
2019-03-21T13:23:50.053Z,49.27
2019-03-21T13:26:21.573Z,48.59
2019-03-21T13:28:53.091Z,48.21
2019-03-21T13:31:24.611Z,48.14
2019-03-21T13:33:56.226Z,48.30
2019-03-21T13:36:27.741Z,48.98
2019-03-21T13:38:59.265Z,49.33
2019-03-21T13:41:30.785Z,49.53
2019-03-21T13:44:03.421Z,50.62
2019-03-21T13:46:34.944Z,51.57
2019-03-21T13:49:06.513Z,51.65
2019-03-21T13:51:38.038Z,51.52
2019-03-21T13:54:09.648Z,51.24
2019-03-21T13:56:41.249Z,50.93
2019-03-21T13:59:12.765Z,50.70
2019-03-21T14:01:44.281Z,50.67
2019-03-21T14:04:15.783Z,50.66
2019-03-21T14:06:47.303Z,50.42
2019-03-21T14:09:20.359Z,50.69
2019-03-21T14:11:51.957Z,50.50
2019-03-21T14:14:23.483Z,49.79
2019-03-21T14:16:56.091Z,49.93
2019-03-21T14:19:27.601Z,49.84
2019-03-21T14:21:59.146Z,50.15
2019-03-21T14:24:36.306Z,50.17
2019-03-21T14:27:03.939Z,50.29
2019-03-21T14:29:35.463Z,50.46
2019-03-21T14:32:06.980Z,50.91
2019-03-21T14:34:38.505Z,51.48
2019-03-21T14:37:10.022Z,52.13
2019-03-21T14:39:41.545Z,52.09
2019-03-21T14:42:13.062Z,52.09
2019-03-21T14:44:44.668Z,52.09
2019-03-21T14:47:16.192Z,51.96
2019-03-21T14:49:47.758Z,51.96
2019-03-21T14:52:19.260Z,52.17
2019-03-21T14:54:50.904Z,52.44
2019-03-21T14:57:22.420Z,52.49
2019-03-21T14:59:53.943Z,52.63
2019-03-21T15:02:25.552Z,53.10
2019-03-21T15:04:57.075Z,53.30
2019-03-21T15:07:28.596Z,53.38
2019-03-21T15:10:00.373Z,53.46
2019-03-21T15:12:32.037Z,53.38
2019-03-21T15:15:05.401Z,53.33
2019-03-21T15:17:36.977Z,53.72
2019-03-21T15:20:12.196Z,53.86
2019-03-21T15:22:43.852Z,54.15
2019-03-21T15:25:15.372Z,54.12
2019-03-21T15:27:46.890Z,53.80
2019-03-21T15:30:20.190Z,53.57
2019-03-21T15:32:51.894Z,53.39
2019-03-21T15:35:25.144Z,53.43
2019-03-21T15:37:56.764Z,53.30
2019-03-21T15:40:28.387Z,53.13
2019-03-21T15:42:59.918Z,53.34
2019-03-21T15:45:31.603Z,53.49
2019-03-21T15:48:03.116Z,53.36
2019-03-21T15:50:40.105Z,53.31
2019-03-21T15:53:22.172Z,53.83
2019-03-21T15:55:52.884Z,54.05
2019-03-21T15:58:26.121Z,54.11
2019-03-21T16:00:59.183Z,54.01
2019-03-21T16:03:35.758Z,54.11
2019-03-21T16:06:08.658Z,54.60
2019-03-21T16:08:40.218Z,54.86
2019-03-21T16:11:20.750Z,54.86
2019-03-21T16:13:52.276Z,55.34
2019-03-21T16:16:23.941Z,55.33
2019-03-21T16:18:55.482Z,55.31
2019-03-21T16:21:36.691Z,55.69
2019-03-21T16:24:12.148Z,56.00
2019-03-21T16:26:43.674Z,56.26
2019-03-21T16:29:15.274Z,56.31
2019-03-21T16:31:49.147Z,56.20
2019-03-21T16:34:20.788Z,56.18
2019-03-21T16:36:52.626Z,56.41
2019-03-21T16:40:43.602Z,56.60
2019-03-21T16:42:37.120Z,56.37
2019-03-21T16:45:11.418Z,56.70
2019-03-21T16:47:45.905Z,56.64
2019-03-21T16:50:17.478Z,56.81
2019-03-21T16:52:49.022Z,56.60
2019-03-21T16:55:20.865Z,56.62
2019-03-21T16:57:56.275Z,56.63
2019-03-21T17:00:27.870Z,57.17
2019-03-21T17:02:59.464Z,57.46
2019-03-21T17:05:30.987Z,57.80
2019-03-21T17:08:11.037Z,58.02
2019-03-21T17:10:36.036Z,58.25
2019-03-21T17:13:08.752Z,58.28
2019-03-21T17:15:40.519Z,58.85
2019-03-21T17:18:12.159Z,58.76
2019-03-21T17:20:43.678Z,58.82
2019-03-21T17:23:15.257Z,58.97
2019-03-21T17:25:46.851Z,58.81
2019-03-21T17:28:18.477Z,59.03
2019-03-21T17:30:51.068Z,59.67
2019-03-21T17:33:22.568Z,59.75
2019-03-21T17:35:54.097Z,60.07
2019-03-21T17:38:25.743Z,60.33
2019-03-21T17:40:58.885Z,60.53
2019-03-21T17:43:30.391Z,60.30
2019-03-21T17:46:01.987Z,60.35
2019-03-21T17:48:33.586Z,60.42
2019-03-21T17:51:05.104Z,60.71
2019-03-21T17:53:36.611Z,60.38
2019-03-21T17:56:08.130Z,60.96
2019-03-21T17:58:39.689Z,61.25
2019-03-21T18:01:11.211Z,61.45
2019-03-21T18:03:42.735Z,61.60
2019-03-21T18:06:14.261Z,61.55
2019-03-21T18:08:45.858Z,61.58
2019-03-21T18:11:17.386Z,61.77
2019-03-21T18:13:48.982Z,61.81
2019-03-21T18:16:20.508Z,61.55
2019-03-21T18:18:52.014Z,61.28
2019-03-21T18:21:23.667Z,61.36
2019-03-21T18:23:55.193Z,61.39
2019-03-21T18:26:26.777Z,61.31
2019-03-21T18:28:58.314Z,61.14
2019-03-21T18:31:29.845Z,61.03
2019-03-21T18:34:01.347Z,60.97
2019-03-21T18:36:32.871Z,61.03
2019-03-21T18:39:06.902Z,61.14
2019-03-21T18:41:38.508Z,61.20
2019-03-21T18:44:10.116Z,61.17
2019-03-21T18:46:41.689Z,61.36
2019-03-21T18:49:13.217Z,61.41
2019-03-21T18:51:44.733Z,61.42
2019-03-21T18:54:16.259Z,61.41
2019-03-21T18:56:47.767Z,61.50
2019-03-21T18:59:19.302Z,61.23
2019-03-21T19:01:58.430Z,61.52
2019-03-21T19:04:24.191Z,61.58
2019-03-21T19:06:55.796Z,61.53
2019-03-21T19:09:27.325Z,61.71
2019-03-21T19:11:58.850Z,61.67
2019-03-21T19:14:30.381Z,61.76
2019-03-21T19:17:01.949Z,61.78
2019-03-21T19:19:33.472Z,61.73
2019-03-21T19:22:05.038Z,61.92
2019-03-21T19:24:36.551Z,61.82
2019-03-21T19:27:08.076Z,61.85
2019-03-21T19:29:39.705Z,61.90
2019-03-21T19:32:11.220Z,61.87
2019-03-21T19:34:42.755Z,61.95
2019-03-21T19:37:14.413Z,62.25
2019-03-21T19:39:45.942Z,61.97
2019-03-21T19:42:17.546Z,61.83
2019-03-21T19:44:49.215Z,62.01
2019-03-21T19:47:25.734Z,62.08
2019-03-21T19:49:54.053Z,62.25
2019-03-21T19:52:25.548Z,62.28
2019-03-21T19:54:57.179Z,62.41
2019-03-21T19:57:28.788Z,62.47
2019-03-21T20:00:00.395Z,62.33
2019-03-21T20:02:32.016Z,62.31
2019-03-21T20:05:04.209Z,62.41
2019-03-21T20:07:35.802Z,62.38
2019-03-21T20:10:09.505Z,62.32
2019-03-21T20:12:41.187Z,62.17
2019-03-21T20:15:14.903Z,62.23
2019-03-21T20:17:46.711Z,62.24
2019-03-21T20:20:19.126Z,62.35
2019-03-21T20:22:51.160Z,62.43
2019-03-21T20:25:22.786Z,62.43
2019-03-21T20:27:54.420Z,62.41
2019-03-21T20:30:26.020Z,62.74
2019-03-21T20:32:57.554Z,62.80
2019-03-21T20:35:29.114Z,62.81
2019-03-21T20:38:00.712Z,62.69
2019-03-21T20:40:32.313Z,62.84
2019-03-21T20:43:03.836Z,62.92
2019-03-21T20:45:35.400Z,62.87
2019-03-21T20:48:06.998Z,62.89
2019-03-21T20:50:38.594Z,62.68
2019-03-21T20:53:10.191Z,62.81
2019-03-21T20:55:41.758Z,62.81
2019-03-21T20:58:13.308Z,62.96
2019-03-21T21:00:44.829Z,62.97
2019-03-21T21:03:17.432Z,62.89
2019-03-21T21:05:50.556Z,62.95
2019-03-21T21:08:22.153Z,62.90
2019-03-21T21:10:53.683Z,63.06
2019-03-21T21:13:25.262Z,63.08
2019-03-21T21:15:56.789Z,63.14
2019-03-21T21:18:28.291Z,63.04
2019-03-21T21:20:59.902Z,63.14
2019-03-21T21:23:31.428Z,63.08
2019-03-21T21:26:05.647Z,63.14
2019-03-21T21:28:36.182Z,63.51
2019-03-21T21:31:07.767Z,63.56
2019-03-21T21:33:39.432Z,63.67
2019-03-21T21:36:21.601Z,63.76
2019-03-21T21:38:44.237Z,63.81
2019-03-21T21:41:16.826Z,63.97
2019-03-21T21:43:48.344Z,64.00
2019-03-21T21:46:20.017Z,63.94
2019-03-21T21:48:53.654Z,63.99
2019-03-21T21:51:27.349Z,64.22
2019-03-21T21:53:58.850Z,64.27
2019-03-21T21:56:30.390Z,64.12
2019-03-21T21:59:01.985Z,64.43
2019-03-21T22:01:33.515Z,64.53
2019-03-21T22:04:06.147Z,64.81
2019-03-21T22:06:37.619Z,64.73
2019-03-21T22:09:09.221Z,64.67
2019-03-21T22:11:40.770Z,64.65
2019-03-21T22:14:12.271Z,64.77
2019-03-21T22:16:43.805Z,64.67
2019-03-21T22:19:15.332Z,65.04
2019-03-21T22:21:46.834Z,64.93
2019-03-21T22:24:18.391Z,64.83
2019-03-21T22:26:49.906Z,64.97
2019-03-21T22:29:21.436Z,64.83
2019-03-21T22:31:53.036Z,65.02
2019-03-21T22:34:24.556Z,64.92
2019-03-21T22:36:56.056Z,64.90
2019-03-21T22:39:27.580Z,64.80
2019-03-21T22:41:59.086Z,64.95
2019-03-21T22:44:30.587Z,64.85
2019-03-21T22:47:02.163Z,65.05
2019-03-21T22:49:33.683Z,65.08
2019-03-21T22:52:05.228Z,65.26
2019-03-21T22:54:36.740Z,65.46
2019-03-21T22:57:08.304Z,65.29
2019-03-21T22:59:40.108Z,65.42
2019-03-21T23:02:13.406Z,65.54
2019-03-21T23:04:45.062Z,65.69
2019-03-21T23:07:16.651Z,66.01
2019-03-21T23:09:48.177Z,66.12
2019-03-21T23:12:19.707Z,66.30
2019-03-21T23:14:51.237Z,66.36
2019-03-21T23:17:22.829Z,66.51
2019-03-21T23:19:54.440Z,66.74
2019-03-21T23:22:26.061Z,67.00
2019-03-21T23:24:57.562Z,66.99
2019-03-21T23:27:29.168Z,66.84
2019-03-21T23:30:00.897Z,66.78
2019-03-21T23:32:32.466Z,66.54
2019-03-21T23:35:07.325Z,66.60
2019-03-21T23:37:39.058Z,66.76
2019-03-21T23:40:13.012Z,66.87
2019-03-21T23:42:44.716Z,66.97
2019-03-21T23:45:20.015Z,67.21
2019-03-21T23:47:51.526Z,67.21
2019-03-21T23:50:23.367Z,67.41
2019-03-21T23:52:55.034Z,67.51
2019-03-21T23:55:26.556Z,67.70
2019-03-21T23:57:58.111Z,67.79
